Descanso, CA

10:50 PM PDT on September 01, 2014 (GMT -0700)
Sherilton Valley | Change Station
CLOSE
Current Station
Personal Weather Station
Location: Descanso, CA
Elevation: 3264 ft
Nearby Weather Stations

Elev 3264 ft 32.90 °N, 116.62 °W | Updated 43 seconds ago

Clear
Clear
71.6 °F
Feels Like 76 °F
N
3.0
Wind Variable Wind from ENE
Gusts 4.0 mph

Today
High -- | Low -- °F
--% Chance of Precip.
Yesterday
High -- | Low -- °F
Precip. -- in
6:21 AM 7:11 PM
Waxing Crescent, 48% visible
Pressure 29.80 in
Visibility -9999.0 miles
Clouds
Heat Index 76 °F
Dew Point 40 °F
Humidity 32%
Rainfall 0.00 in
Snow Depth Not available.
UV Not available.
Pollen 8.30 out of 12
Air Quality Not available.
Flu Activity Not available.
METAR KCZZ 020452Z AUTO 05005KT 18/06 A2990 RMK AO1 SLP089 T01780061

More Conditions Fewer Conditions

Pressure 29.80 in
Visibility -9999.0 miles
Clouds
Heat Index 76 °F
Dew Point 40 °F
Humidity 32%
Rainfall 0.00 in
Snow Depth Not available.
UV Not available.
Pollen 8.30 out of 12
Air Quality Not available.
Flu Activity Not available.
METAR KCZZ 020452Z AUTO 05005KT 18/06 A2990 RMK AO1 SLP089 T01780061

More Conditions Fewer Conditions

10-Day Weather Forecast

Almanac

Astronomy

Sep. 01, 2014 Rise Set
Actual Time 6:21 AM PDT 7:11 PM PDT
Civil Twilight 5:55 AM PDT 7:36 PM PDT
Nautical Twilight 5:26 AM PDT 8:06 PM PDT
Astronomical Twilight 4:55 AM PDT 8:36 PM PDT
Moon 12:49 PM PDT (9/1) 11:37 PM PDT (9/1)
Length of Visible Light 13h 40m
Length of Day
12h 50m
Tomorrow will be 1m 58s shorter.
Waxing Crescent, 48% of the Moon is Illuminated
Sep 2
Waxing Crescent
Sep 2
First Quarter
Sep 8
Full
Sep 15
Last Quarter
Sep 24
New

Yesterday's Extremes

State Highs State Lows

Community

WunderPhotos

Upload Photos

1,749,579 photos uploaded!

WunderBlogs® & News

Nearby

Snow Depth

Station Depth Elevation
Leavitt Lake 0 in 9400 ft
Leavitt Meadows 0 in 7200 ft
Summit Meadow 0 in 9122 ft
Monitor Pass 0 in 8350 ft
Blue Lakes 0 in 8000 ft

Earthquake Activity

City Distance Mag. Time & Date
Holtville, California 71 miles 2.5 5:43 PM PDT
2014-09-01
Holtville, California 72 miles 2.5 5:26 PM PDT
2014-09-01
Minimum magnitude displayed is 2.5.

Coastal Water Temperatures

Place Temperature
No Stations Reporting

Nearby Weather Stations